Time;durP1;ratioP1;P1;durP2;ratioP2;P2;SDS_P1;SDS_P2;PMS_P1;PMS_P2;Temp;Humidity;BMP_temperature;BMP_pressure;BME280_temperature;BME280_humidity;BME280_pressure;Samples;Min_cycle;Max_cycle;Signal;HPM_P1;HPM_P2
2022/07/09 00:00:38;;;;;;;5.03;2.75;;;18.60;99.90;;;;;;5090778;28;20073;-82
2022/07/09 00:03:04;;;;;;;5.55;2.83;;;18.60;99.90;;;;;;5072704;28;20039;-84
2022/07/09 00:05:30;;;;;;;5.30;2.97;;;18.50;99.90;;;;;;5090941;28;20025;-82
2022/07/09 00:07:56;;;;;;;5.30;2.83;;;18.50;99.90;;;;;;5090511;28;20028;-82
2022/07/09 00:10:21;;;;;;;8.32;3.00;;;18.40;99.90;;;;;;5090987;28;20024;-82
2022/07/09 00:12:47;;;;;;;8.00;2.95;;;18.40;99.90;;;;;;5091275;28;20055;-82
2022/07/09 00:15:13;;;;;;;5.35;2.90;;;18.40;99.90;;;;;;5095089;28;20020;-82
2022/07/09 00:17:39;;;;;;;5.30;2.60;;;18.40;99.90;;;;;;5095021;28;20530;-82
2022/07/09 00:20:06;;;;;;;4.22;2.42;;;18.40;99.90;;;;;;5076898;28;20650;-82
2022/07/09 00:22:32;;;;;;;4.15;2.60;;;18.40;99.90;;;;;;5094879;28;20025;-81
2022/07/09 00:24:58;;;;;;;4.60;2.50;;;18.30;99.90;;;;;;5095045;28;20028;-82
2022/07/09 00:27:24;;;;;;;7.72;2.70;;;18.30;99.90;;;;;;5094926;28;20039;-82
2022/07/09 00:29:50;;;;;;;7.50;2.95;;;18.20;99.90;;;;;;5076429;28;20032;-82
2022/07/09 00:32:16;;;;;;;4.22;2.60;;;18.30;99.90;;;;;;5076720;28;20027;-84
2022/07/09 00:34:42;;;;;;;5.30;2.75;;;18.20;99.90;;;;;;5076532;28;20059;-82
2022/07/09 00:37:08;;;;;;;7.03;2.70;;;18.30;99.90;;;;;;5094427;28;20090;-82
2022/07/09 00:39:34;;;;;;;4.63;2.58;;;18.20;99.90;;;;;;5059561;28;20036;-82
2022/07/09 00:42:05;;;;;;;8.73;3.00;;;18.20;99.90;;;;;;5093201;28;20073;-82
2022/07/09 00:44:30;;;;;;;7.38;3.03;;;18.20;99.90;;;;;;5094663;28;20107;-82
2022/07/09 00:46:57;;;;;;;9.32;3.20;;;18.10;99.90;;;;;;5094361;28;20503;-82
2022/07/09 00:49:24;;;;;;;6.15;3.30;;;18.10;99.90;;;;;;5076023;28;20059;-82
2022/07/09 00:51:50;;;;;;;4.82;3.13;;;18.10;99.90;;;;;;5094293;28;20483;-82
2022/07/09 00:54:16;;;;;;;5.95;2.60;;;18.10;99.90;;;;;;5094393;28;20095;-82
2022/07/09 00:56:42;;;;;;;7.28;2.80;;;18.00;99.90;;;;;;5076080;28;20471;-82
2022/07/09 00:59:12;;;;;;;4.65;2.65;;;18.00;99.90;;;;;;5094194;28;20024;-82
2022/07/09 01:01:39;;;;;;;5.80;3.03;;;18.00;99.90;;;;;;5094093;28;20496;-82
2022/07/09 01:04:06;;;;;;;6.65;2.88;;;18.00;99.90;;;;;;5094275;28;20069;-82
2022/07/09 01:06:31;;;;;;;6.63;2.50;;;17.90;99.90;;;;;;5094152;28;20035;-82
2022/07/09 01:08:57;;;;;;;11.30;2.95;;;18.00;99.90;;;;;;5094145;28;20036;-82
2022/07/09 01:11:23;;;;;;;6.03;2.85;;;17.90;99.90;;;;;;5094159;28;20036;-82
2022/07/09 01:13:50;;;;;;;6.32;2.90;;;17.90;99.90;;;;;;5094167;28;20036;-82
2022/07/09 01:16:16;;;;;;;7.15;3.10;;;17.90;99.90;;;;;;5075912;28;20032;-82
2022/07/09 01:18:46;;;;;;;5.25;3.05;;;17.90;99.90;;;;;;5075757;28;20024;-82
2022/07/09 01:21:13;;;;;;;4.65;2.65;;;18.00;99.90;;;;;;5094278;28;20059;-82
2022/07/09 01:23:39;;;;;;;4.95;3.05;;;17.90;99.90;;;;;;5075846;28;20028;-82
2022/07/09 01:26:05;;;;;;;5.57;3.40;;;18.00;99.90;;;;;;5093971;28;20373;-82
2022/07/09 01:28:31;;;;;;;5.70;2.92;;;17.90;99.90;;;;;;5093829;28;20057;-82
2022/07/09 01:30:57;;;;;;;5.90;3.10;;;17.90;99.90;;;;;;5075551;28;20032;-82
2022/07/09 01:33:22;;;;;;;6.95;2.95;;;17.80;99.90;;;;;;5075442;28;20036;-82
2022/07/09 01:35:48;;;;;;;5.65;2.88;;;17.80;99.90;;;;;;5093857;28;20044;-82
2022/07/09 01:38:14;;;;;;;5.93;2.83;;;17.80;99.90;;;;;;5093800;28;20028;-82
2022/07/09 01:40:40;;;;;;;4.82;3.00;;;17.80;99.90;;;;;;5075572;28;20031;-83
2022/07/09 01:43:06;;;;;;;5.25;3.10;;;17.80;99.90;;;;;;5094071;28;20039;-83
2022/07/09 01:45:32;;;;;;;8.00;3.42;;;17.80;99.90;;;;;;5075713;28;20047;-83
2022/07/09 01:47:58;;;;;;;6.60;3.03;;;17.70;99.90;;;;;;5093416;28;20032;-82
2022/07/09 01:50:24;;;;;;;6.60;2.97;;;17.70;99.90;;;;;;5093314;28;20534;-82
2022/07/09 01:52:50;;;;;;;7.22;3.08;;;17.70;99.90;;;;;;5093544;28;20024;-82
2022/07/09 01:55:16;;;;;;;8.80;3.00;;;17.70;99.90;;;;;;5093144;28;20035;-82
2022/07/09 01:57:42;;;;;;;4.55;2.83;;;17.70;99.90;;;;;;5093180;28;20020;-82
2022/07/09 02:00:08;;;;;;;6.43;3.10;;;17.70;99.90;;;;;;5092990;28;20067;-82
2022/07/09 02:02:40;;;;;;;7.35;3.00;;;17.70;99.90;;;;;;5075863;28;20032;-82
2022/07/09 02:05:06;;;;;;;4.85;2.88;;;17.70;99.90;;;;;;5093261;28;20028;-82
2022/07/09 02:07:32;;;;;;;6.88;3.22;;;17.70;99.90;;;;;;5093146;28;20032;-82
2022/07/09 02:09:58;;;;;;;6.30;3.17;;;17.70;99.90;;;;;;5092861;28;20150;-82
2022/07/09 02:12:23;;;;;;;7.43;3.47;;;17.80;99.90;;;;;;5074753;28;20085;-83
2022/07/09 02:14:49;;;;;;;5.47;3.10;;;17.80;99.90;;;;;;5093214;28;20032;-82
2022/07/09 02:17:15;;;;;;;6.45;3.40;;;17.80;99.90;;;;;;5092615;28;20089;-83
2022/07/09 02:19:41;;;;;;;10.00;3.53;;;17.80;99.90;;;;;;5074651;28;20495;-82
2022/07/09 02:22:07;;;;;;;7.15;3.25;;;17.80;99.90;;;;;;5092899;28;20032;-82
2022/07/09 02:24:33;;;;;;;5.72;2.80;;;17.80;99.90;;;;;;5092900;28;20047;-82
2022/07/09 02:26:58;;;;;;;5.22;3.20;;;17.80;99.90;;;;;;5092626;28;20111;-82
2022/07/09 02:29:24;;;;;;;6.75;3.00;;;17.80;99.90;;;;;;5092566;28;20549;-82
2022/07/09 02:31:50;;;;;;;6.20;3.40;;;17.80;99.90;;;;;;5092400;28;20461;-82
2022/07/09 02:34:16;;;;;;;6.78;3.50;;;17.90;99.90;;;;;;5092644;28;20051;-82
2022/07/09 02:36:42;;;;;;;5.82;3.30;;;17.90;99.90;;;;;;5091796;28;20054;-82
2022/07/09 02:39:07;;;;;;;6.50;3.60;;;17.80;99.90;;;;;;5092267;28;20040;-83
2022/07/09 02:41:33;;;;;;;7.38;4.00;;;17.80;99.90;;;;;;5092369;28;20039;-83
2022/07/09 02:43:59;;;;;;;5.25;3.05;;;17.80;99.90;;;;;;5074326;28;20028;-83
2022/07/09 02:46:24;;;;;;;5.82;3.30;;;17.80;99.90;;;;;;5091922;28;20028;-82
2022/07/09 02:48:50;;;;;;;8.98;3.25;;;17.80;99.90;;;;;;5091988;28;20400;-83
2022/07/09 02:51:16;;;;;;;6.30;3.40;;;17.80;99.90;;;;;;5073935;28;20028;-82
2022/07/09 02:53:42;;;;;;;6.63;3.80;;;17.90;99.90;;;;;;5091960;28;20052;-82
2022/07/09 02:56:07;;;;;;;5.30;3.72;;;17.90;99.90;;;;;;5073568;28;20540;-82
2022/07/09 02:58:33;;;;;;;5.80;3.30;;;17.80;99.90;;;;;;5092011;28;20024;-82
2022/07/09 03:00:59;;;;;;;9.88;3.92;;;17.90;99.90;;;;;;5091771;28;20388;-83
2022/07/09 03:03:26;;;;;;;6.45;3.35;;;17.90;99.90;;;;;;5091882;28;20032;-82
2022/07/09 03:05:52;;;;;;;7.68;3.55;;;17.90;99.90;;;;;;5091640;28;20114;-83
2022/07/09 03:08:21;;;;;;;5.65;3.10;;;17.90;99.90;;;;;;5091701;28;20103;-82
2022/07/09 03:10:50;;;;;;;7.72;4.35;;;18.00;99.90;;;;;;5091592;28;20051;-82
2022/07/09 03:13:15;;;;;;;6.47;3.78;;;18.00;99.90;;;;;;5073539;28;20031;-82
2022/07/09 03:15:41;;;;;;;6.93;3.60;;;18.00;99.90;;;;;;5091495;28;20119;-82
2022/07/09 03:18:08;;;;;;;9.43;3.80;;;18.10;99.90;;;;;;5073449;28;20064;-82
2022/07/09 03:20:35;;;;;;;7.25;3.80;;;18.00;99.90;;;;;;5091419;28;20031;-82
2022/07/09 03:23:01;;;;;;;8.73;3.20;;;18.00;99.90;;;;;;5091528;28;20051;-82
2022/07/09 03:25:27;;;;;;;9.30;3.55;;;18.00;99.90;;;;;;5091533;28;20135;-82
2022/07/09 03:27:56;;;;;;;;;;;18.00;99.90;;;;;;5091544;28;20032;-82
2022/07/09 03:30:23;;;;;;;5.90;3.25;;;18.00;99.90;;;;;;5072911;28;19908;-82
2022/07/09 03:32:49;;;;;;;6.95;3.70;;;18.00;99.90;;;;;;5091261;28;20103;-82
2022/07/09 03:35:15;;;;;;;7.55;3.72;;;18.00;99.90;;;;;;5091262;28;20080;-82
2022/07/09 03:37:41;;;;;;;5.18;3.60;;;18.00;99.90;;;;;;5091215;28;20024;-82
2022/07/09 03:40:07;;;;;;;7.15;3.63;;;18.00;99.90;;;;;;5073279;28;20028;-83
2022/07/09 03:42:33;;;;;;;7.57;3.40;;;18.10;99.90;;;;;;5091361;28;20028;-82
2022/07/09 03:44:59;;;;;;;6.38;3.50;;;18.00;99.90;;;;;;5091510;28;20166;-83
2022/07/09 03:47:24;;;;;;;9.95;4.30;;;18.00;99.90;;;;;;5090219;28;20055;-83
2022/07/09 03:49:50;;;;;;;6.40;3.70;;;17.90;99.90;;;;;;5073054;28;20111;-83
2022/07/09 03:52:16;;;;;;;5.57;3.70;;;17.90;99.90;;;;;;5091211;28;20024;-83
2022/07/09 03:54:42;;;;;;;6.50;3.97;;;17.90;99.90;;;;;;5073120;28;20503;-82
2022/07/09 03:57:08;;;;;;;6.22;3.60;;;18.00;99.90;;;;;;5091005;28;20028;-83
2022/07/09 03:59:33;;;;;;;8.45;3.80;;;18.00;99.90;;;;;;5090975;28;20020;-83
2022/07/09 04:01:59;;;;;;;5.20;3.60;;;17.90;99.90;;;;;;5091119;28;20440;-83
2022/07/09 04:04:25;;;;;;;6.15;3.95;;;18.00;99.90;;;;;;5091234;28;20024;-83
2022/07/09 04:06:51;;;;;;;7.95;3.78;;;18.00;99.90;;;;;;5090858;28;20392;-82
2022/07/09 04:09:16;;;;;;;6.82;3.88;;;18.00;99.90;;;;;;5090962;28;20115;-82
2022/07/09 04:11:42;;;;;;;7.47;4.65;;;18.00;99.90;;;;;;5091132;28;20073;-82
2022/07/09 04:14:08;;;;;;;8.55;3.92;;;17.90;99.90;;;;;;5072832;28;20647;-82
2022/07/09 04:16:34;;;;;;;6.80;4.07;;;17.90;99.90;;;;;;5090954;28;20048;-83
2022/07/09 04:18:59;;;;;;;6.43;3.72;;;17.90;99.90;;;;;;5091006;28;20422;-82
2022/07/09 04:21:25;;;;;;;6.60;4.00;;;17.90;99.90;;;;;;5091044;28;20027;-83
2022/07/09 04:23:52;;;;;;;6.53;3.67;;;17.90;99.90;;;;;;5091515;28;20353;-83
2022/07/09 04:26:18;;;;;;;7.22;4.13;;;17.90;99.90;;;;;;5072611;28;20059;-83
2022/07/09 04:28:45;;;;;;;9.63;4.28;;;17.90;99.90;;;;;;5090997;28;20102;-82
2022/07/09 04:31:12;;;;;;;7.47;3.85;;;17.90;99.90;;;;;;5090916;28;20020;-83
2022/07/09 04:33:37;;;;;;;7.40;4.05;;;17.80;99.90;;;;;;5072789;28;20545;-83
2022/07/09 04:36:04;;;;;;;8.77;4.40;;;17.80;99.90;;;;;;5090826;28;20028;-82
2022/07/09 04:38:30;;;;;;;7.78;5.00;;;17.90;99.90;;;;;;5091041;28;20081;-82
2022/07/09 04:40:56;;;;;;;8.82;4.43;;;17.90;99.90;;;;;;5072793;28;20111;-82
2022/07/09 04:43:22;;;;;;;7.90;4.40;;;17.90;99.90;;;;;;5090567;28;20620;-83
2022/07/09 04:45:48;;;;;;;7.80;4.53;;;17.90;99.90;;;;;;5090388;28;20028;-83
2022/07/09 04:48:13;;;;;;;6.78;4.80;;;17.90;99.90;;;;;;5090780;28;20115;-83
2022/07/09 04:50:39;;;;;;;9.43;4.72;;;17.90;99.90;;;;;;5090312;28;20020;-82
2022/07/09 04:53:05;;;;;;;8.43;4.63;;;18.00;99.90;;;;;;5072659;28;20460;-82
2022/07/09 04:55:31;;;;;;;9.35;4.30;;;18.00;99.90;;;;;;5072702;28;20020;-83
2022/07/09 04:57:57;;;;;;;8.68;5.20;;;18.00;99.90;;;;;;5090834;28;20016;-83
2022/07/09 05:00:22;;;;;;;9.20;5.40;;;18.10;99.90;;;;;;5076130;28;20034;-83
2022/07/09 05:02:48;;;;;;;7.40;5.65;;;18.10;99.90;;;;;;5106278;22;20051;-81
2022/07/09 05:05:14;;;;;;;8.75;6.07;;;18.10;99.90;;;;;;5094164;28;20035;-80
2022/07/09 05:07:43;;;;;;;7.78;5.50;;;18.20;99.90;;;;;;5094018;28;20035;-80
2022/07/09 05:10:09;;;;;;;19.67;12.35;;;18.20;99.90;;;;;;5093914;28;20642;-81
2022/07/09 05:12:35;;;;;;;15.98;12.95;;;18.30;99.90;;;;;;5092488;28;20036;-81
2022/07/09 05:15:01;;;;;;;16.42;12.15;;;18.30;99.90;;;;;;5093760;28;20557;-81
2022/07/09 05:17:26;;;;;;;21.35;13.48;;;18.40;99.90;;;;;;5093667;28;20108;-81
2022/07/09 05:19:52;;;;;;;24.90;16.67;;;18.40;99.90;;;;;;5093714;28;20032;-81
2022/07/09 05:22:18;;;;;;;21.20;15.95;;;18.40;99.90;;;;;;5093784;28;20468;-81
2022/07/09 05:24:44;;;;;;;19.33;14.85;;;18.40;99.90;;;;;;5093670;28;20031;-81
2022/07/09 05:27:09;;;;;;;17.42;13.63;;;18.50;99.90;;;;;;5092190;28;20036;-81
2022/07/09 05:29:36;;;;;;;22.13;15.25;;;18.50;99.90;;;;;;5093367;28;20032;-81
2022/07/09 05:32:02;;;;;;;21.40;15.27;;;18.50;99.90;;;;;;5093504;28;20028;-81
2022/07/09 05:34:28;;;;;;;20.92;14.88;;;18.60;99.90;;;;;;5093285;28;20545;-80
2022/07/09 05:36:56;;;;;;;21.10;15.77;;;18.60;99.90;;;;;;5093290;28;20060;-80
2022/07/09 05:39:22;;;;;;;21.02;14.65;;;18.60;99.90;;;;;;5093202;28;20039;-80
2022/07/09 05:41:48;;;;;;;18.27;13.50;;;18.60;99.90;;;;;;5093352;28;20380;-81
2022/07/09 05:44:14;;;;;;;20.92;15.18;;;18.60;99.90;;;;;;5093545;28;20043;-81
2022/07/09 05:46:40;;;;;;;19.58;14.80;;;18.70;99.90;;;;;;5093192;28;20085;-81
2022/07/09 05:49:06;;;;;;;21.85;15.32;;;18.70;99.90;;;;;;5093082;28;20107;-80
2022/07/09 05:51:32;;;;;;;24.20;15.57;;;18.70;99.90;;;;;;5074976;28;20110;-80
2022/07/09 05:53:58;;;;;;;23.85;16.50;;;18.80;99.90;;;;;;5093094;28;20028;-80
2022/07/09 05:56:24;;;;;;;21.88;15.65;;;18.80;99.90;;;;;;5092711;28;20596;-80
2022/07/09 05:58:50;;;;;;;23.77;16.67;;;18.80;99.90;;;;;;5093122;28;20032;-80
2022/07/09 06:01:15;;;;;;;25.00;16.60;;;18.90;99.90;;;;;;5091772;28;20431;-80
2022/07/09 06:03:42;;;;;;;23.27;15.45;;;18.90;99.90;;;;;;5091531;28;20122;-80
2022/07/09 06:06:09;;;;;;;21.65;14.50;;;18.90;99.90;;;;;;5093097;28;20423;-80
2022/07/09 06:08:35;;;;;;;22.83;16.70;;;19.00;99.90;;;;;;5092715;28;20032;-80
2022/07/09 06:11:01;;;;;;;22.52;15.80;;;19.00;99.90;;;;;;5091908;28;20040;-80
2022/07/09 06:13:27;;;;;;;27.38;17.23;;;19.00;99.90;;;;;;5092639;28;20126;-79
2022/07/09 06:15:53;;;;;;;25.05;17.15;;;19.10;99.90;;;;;;5091174;28;20187;-79
2022/07/09 06:18:19;;;;;;;26.70;16.48;;;19.20;99.90;;;;;;5091377;28;20430;-79
2022/07/09 06:20:45;;;;;;;26.30;17.15;;;19.20;99.90;;;;;;5092408;28;20032;-79
2022/07/09 06:23:12;;;;;;;24.63;15.10;;;19.20;99.90;;;;;;5092531;28;20067;-79
2022/07/09 06:25:41;;;;;;;22.83;15.45;;;19.30;99.90;;;;;;5092336;28;20040;-80
2022/07/09 06:28:06;;;;;;;;;;;19.40;99.90;;;;;;5092973;28;20031;-79
2022/07/09 06:30:33;;;;;;;30.13;16.58;;;19.40;99.90;;;;;;5092586;28;19912;-79
2022/07/09 06:33:00;;;;;;;27.98;15.38;;;19.50;99.90;;;;;;5092319;28;20068;-79
2022/07/09 06:35:26;;;;;;;24.52;15.15;;;19.50;99.90;;;;;;5092297;28;20028;-79
2022/07/09 06:37:52;;;;;;;25.27;14.55;;;19.50;99.90;;;;;;5090840;28;20055;-80
2022/07/09 06:40:18;;;;;;;23.38;13.48;;;19.50;99.90;;;;;;5091938;28;20488;-80
2022/07/09 06:42:43;;;;;;;22.70;13.65;;;19.50;99.90;;;;;;5092344;28;20039;-79
2022/07/09 06:45:18;;;;;;;25.70;14.63;;;19.50;99.90;;;;;;5091095;28;20032;-79
2022/07/09 06:47:43;;;;;;;26.17;14.90;;;19.50;99.90;;;;;;5091894;28;20035;-79
2022/07/09 06:50:09;;;;;;;23.42;14.93;;;19.50;99.90;;;;;;5091887;28;20511;-79
2022/07/09 06:52:35;;;;;;;21.77;12.52;;;19.50;99.90;;;;;;5091900;28;20491;-79
2022/07/09 06:55:01;;;;;;;21.45;12.43;;;19.50;99.90;;;;;;5091810;28;20032;-79
2022/07/09 06:57:28;;;;;;;20.08;12.05;;;19.50;99.90;;;;;;5091866;28;20032;-80
2022/07/09 06:59:55;;;;;;;22.52;12.30;;;19.60;99.90;;;;;;5091912;28;20103;-79
2022/07/09 07:02:20;;;;;;;25.15;13.82;;;19.60;99.90;;;;;;5091634;28;20031;-79
2022/07/09 07:04:46;;;;;;;25.38;13.75;;;19.60;99.90;;;;;;5091747;28;20032;-79
2022/07/09 07:07:12;;;;;;;24.10;13.68;;;19.60;99.90;;;;;;5090208;28;20070;-78
2022/07/09 07:09:37;;;;;;;25.88;13.82;;;19.60;99.90;;;;;;5091699;28;20032;-79
2022/07/09 07:12:04;;;;;;;23.17;12.02;;;19.60;99.90;;;;;;5091526;28;20028;-79
2022/07/09 07:14:29;;;;;;;21.35;11.02;;;19.60;99.90;;;;;;5091505;28;20148;-79
2022/07/09 07:16:55;;;;;;;22.08;12.13;;;19.60;99.90;;;;;;5090234;28;20051;-79
2022/07/09 07:19:21;;;;;;;24.38;12.57;;;19.60;99.90;;;;;;5091439;28;20055;-79
2022/07/09 07:21:48;;;;;;;22.25;12.93;;;19.70;99.90;;;;;;5089936;28;20023;-79
2022/07/09 07:24:13;;;;;;;20.98;11.15;;;19.80;99.90;;;;;;5091601;28;20078;-79
2022/07/09 07:26:39;;;;;;;22.13;11.05;;;19.80;99.90;;;;;;5089915;28;20063;-79
2022/07/09 07:29:05;;;;;;;20.10;11.15;;;19.80;99.90;;;;;;5091246;28;20413;-79
2022/07/09 07:31:31;;;;;;;16.48;8.68;;;19.80;99.90;;;;;;5090047;28;20059;-79
2022/07/09 07:33:57;;;;;;;17.35;8.20;;;19.90;99.90;;;;;;5091119;28;20032;-79
2022/07/09 07:36:23;;;;;;;14.52;7.75;;;19.90;99.90;;;;;;5090947;28;20090;-79
2022/07/09 07:38:49;;;;;;;13.10;7.28;;;19.90;99.90;;;;;;5091309;28;20024;-79
2022/07/09 07:41:18;;;;;;;14.90;7.80;;;19.80;99.90;;;;;;5091170;28;20348;-79
2022/07/09 07:43:44;;;;;;;;;;;19.90;99.90;;;;;;5091573;28;20446;-79
2022/07/09 07:46:09;;;;;;;15.15;6.80;;;19.90;99.90;;;;;;5090978;28;19912;-79
2022/07/09 07:48:35;;;;;;;14.85;7.93;;;19.90;99.90;;;;;;5091215;28;20042;-79
2022/07/09 07:51:02;;;;;;;13.75;6.70;;;19.90;99.90;;;;;;5090897;28;20028;-79
2022/07/09 07:53:31;;;;;;;11.07;6.43;;;19.90;99.90;;;;;;5089917;28;20028;-79
2022/07/09 07:55:56;;;;;;;13.30;6.68;;;19.90;99.90;;;;;;5090793;28;20031;-79
2022/07/09 07:58:22;;;;;;;15.18;7.20;;;19.90;99.90;;;;;;5090969;28;20032;-79
2022/07/09 08:00:48;;;;;;;9.02;5.18;;;20.00;99.90;;;;;;5090699;28;20026;-79
2022/07/09 08:03:13;;;;;;;10.20;6.30;;;20.00;99.90;;;;;;5090682;28;20031;-79
2022/07/09 08:05:39;;;;;;;14.02;6.50;;;20.10;99.90;;;;;;5090543;28;20028;-79
2022/07/09 08:08:05;;;;;;;8.73;5.03;;;20.10;99.90;;;;;;5091021;28;20108;-79
2022/07/09 08:10:31;;;;;;;9.88;5.03;;;20.10;99.90;;;;;;5090596;28;20433;-79
2022/07/09 08:12:56;;;;;;;10.38;4.63;;;20.10;99.90;;;;;;5090848;28;20073;-79
2022/07/09 08:15:22;;;;;;;8.38;4.85;;;20.20;99.90;;;;;;5090687;28;20032;-79
2022/07/09 08:17:48;;;;;;;8.80;4.47;;;20.20;99.90;;;;;;5090862;28;20492;-79
2022/07/09 08:20:14;;;;;;;5.93;3.88;;;20.10;99.90;;;;;;5090991;28;20028;-79
2022/07/09 08:22:39;;;;;;;9.18;4.32;;;20.20;99.70;;;;;;5090827;28;20020;-79
2022/07/09 08:25:05;;;;;;;7.22;3.85;;;20.30;99.70;;;;;;5090674;28;20419;-79
2022/07/09 08:27:31;;;;;;;7.38;4.63;;;20.40;99.60;;;;;;5090859;28;20119;-79
2022/07/09 08:29:57;;;;;;;8.73;3.92;;;20.40;99.30;;;;;;5090432;28;20169;-79
2022/07/09 08:32:22;;;;;;;6.13;3.63;;;20.40;99.00;;;;;;5090627;28;20044;-79
2022/07/09 08:34:48;;;;;;;8.35;4.20;;;20.40;99.00;;;;;;5092730;28;20028;-79
2022/07/09 08:37:14;;;;;;;5.60;3.53;;;20.40;98.70;;;;;;5093089;28;20040;-79
2022/07/09 08:39:39;;;;;;;6.18;3.30;;;20.40;98.80;;;;;;5094295;28;20115;-79
2022/07/09 08:42:12;;;;;;;4.88;2.58;;;20.40;98.80;;;;;;5094555;28;20036;-79
2022/07/09 08:44:42;;;;;;;6.47;2.83;;;20.40;98.80;;;;;;5094505;28;20032;-79
2022/07/09 08:47:13;;;;;;;6.40;2.70;;;20.50;98.70;;;;;;5092870;28;20495;-79
2022/07/09 08:49:40;;;;;;;5.30;3.20;;;20.50;98.20;;;;;;5092839;28;20135;-79
2022/07/09 08:52:07;;;;;;;6.25;3.50;;;20.50;98.10;;;;;;5094589;28;20024;-79
2022/07/09 08:54:33;;;;;;;5.57;3.20;;;20.50;98.10;;;;;;5094235;28;20078;-79
2022/07/09 08:56:59;;;;;;;4.55;2.53;;;20.60;98.30;;;;;;5094101;28;20488;-79
2022/07/09 08:59:24;;;;;;;5.32;2.90;;;20.60;98.50;;;;;;5094080;28;20028;-79
2022/07/09 09:01:50;;;;;;;4.28;2.47;;;20.60;98.50;;;;;;5093946;28;20407;-79
2022/07/09 09:04:17;;;;;;;2.60;2.10;;;20.60;98.60;;;;;;5092874;28;20036;-79
2022/07/09 09:06:43;;;;;;;4.25;2.28;;;20.70;98.60;;;;;;5094132;28;20456;-79
2022/07/09 09:09:10;;;;;;;2.92;1.70;;;20.70;98.50;;;;;;5092731;28;20066;-79
2022/07/09 09:11:37;;;;;;;3.60;1.80;;;20.70;97.90;;;;;;5094040;28;20024;-79
2022/07/09 09:14:03;;;;;;;3.70;1.70;;;20.80;97.80;;;;;;5092679;28;20491;-79
2022/07/09 09:16:29;;;;;;;2.85;1.73;;;20.90;97.40;;;;;;5092301;28;20067;-79
2022/07/09 09:18:56;;;;;;;3.00;1.75;;;21.00;96.80;;;;;;5092523;28;20025;-79
2022/07/09 09:21:26;;;;;;;3.08;1.33;;;21.00;96.50;;;;;;5092481;28;20028;-79
2022/07/09 09:23:54;;;;;;;2.35;1.40;;;21.00;96.00;;;;;;5093854;28;20028;-79
2022/07/09 09:26:21;;;;;;;3.73;2.03;;;21.00;96.30;;;;;;5092425;28;20038;-79
2022/07/09 09:28:49;;;;;;;2.55;1.50;;;21.20;96.20;;;;;;5093481;28;20028;-79
2022/07/09 09:31:23;;;;;;;3.35;2.00;;;21.20;95.80;;;;;;5093589;28;20024;-79
2022/07/09 09:33:51;;;;;;;6.28;3.88;;;21.20;96.00;;;;;;5093425;28;20492;-79
2022/07/09 09:36:40;;;;;;;3.17;1.73;;;21.30;95.90;;;;;;5093465;28;20112;-79
2022/07/09 09:39:26;;;;;;;1.85;1.20;;;21.30;96.00;;;;;;5093231;28;20082;-79
2022/07/09 09:41:57;;;;;;;3.10;1.50;;;21.40;95.60;;;;;;5092160;28;20106;-79
2022/07/09 09:44:26;;;;;;;2.25;1.40;;;21.50;95.20;;;;;;5093509;28;20658;-79
2022/07/09 09:46:52;;;;;;;2.30;1.45;;;21.50;95.00;;;;;;5091920;28;20028;-79
2022/07/09 09:49:18;;;;;;;4.80;1.50;;;21.60;94.80;;;;;;5093291;28;20040;-79
2022/07/09 09:52:03;;;;;;;3.20;1.65;;;21.60;94.80;;;;;;5093016;28;20039;-79
2022/07/09 09:54:31;;;;;;;2.95;1.42;;;21.70;94.90;;;;;;5093157;28;20472;-79
2022/07/09 09:56:58;;;;;;;;;;;21.70;95.00;;;;;;5093654;28;20032;-79
2022/07/09 09:59:24;;;;;;;6.28;3.50;;;21.70;94.90;;;;;;5092858;28;20375;-79
2022/07/09 10:01:50;;;;;;;3.78;2.25;;;21.70;94.50;;;;;;5093016;28;20032;-79
2022/07/09 10:04:16;;;;;;;2.55;1.80;;;21.70;94.20;;;;;;5092841;28;20181;-79
2022/07/09 10:06:43;;;;;;;6.68;3.10;;;21.70;94.10;;;;;;5092623;28;20472;-79
2022/07/09 10:09:12;;;;;;;3.03;2.00;;;21.70;94.20;;;;;;5092962;28;20040;-79
2022/07/09 10:11:45;;;;;;;4.68;2.40;;;21.70;94.30;;;;;;5092886;28;20388;-79
2022/07/09 10:14:16;;;;;;;1.50;1.10;;;21.70;94.40;;;;;;5092766;28;20028;-79
2022/07/09 10:16:43;;;;;;;2.50;1.40;;;21.80;93.90;;;;;;5092691;28;20387;-79
2022/07/09 10:19:08;;;;;;;1.75;1.10;;;21.80;93.80;;;;;;5092765;28;20039;-79
2022/07/09 10:21:39;;;;;;;2.35;1.15;;;21.80;93.30;;;;;;5091281;28;20024;-79
2022/07/09 10:24:06;;;;;;;2.08;1.23;;;21.90;93.40;;;;;;5092676;28;20067;-79
2022/07/09 10:26:46;;;;;;;2.88;1.50;;;22.00;93.40;;;;;;5091226;28;20036;-79
2022/07/09 10:29:27;;;;;;;2.97;1.60;;;22.00;93.50;;;;;;5092462;28;20054;-79
2022/07/09 10:31:54;;;;;;;1.83;1.05;;;22.00;93.60;;;;;;5091022;28;20031;-79
2022/07/09 10:34:32;;;;;;;2.63;1.63;;;22.10;93.80;;;;;;5092466;28;20028;-79
2022/07/09 10:37:02;;;;;;;2.53;1.50;;;22.10;93.90;;;;;;5092473;28;20096;-79
2022/07/09 10:39:29;;;;;;;3.38;1.33;;;22.20;93.90;;;;;;5092211;28;20471;-79
2022/07/09 10:42:06;;;;;;;2.22;1.17;;;22.10;93.50;;;;;;5092557;28;20364;-79
2022/07/09 10:44:40;;;;;;;4.05;1.70;;;22.10;93.40;;;;;;5092284;28;20392;-79
2022/07/09 10:47:06;;;;;;;5.63;1.80;;;22.20;93.70;;;;;;5073847;28;20161;-79
2022/07/09 10:49:36;;;;;;;2.45;1.33;;;22.20;93.20;;;;;;5091926;28;20469;-79
2022/07/09 10:52:03;;;;;;;1.80;1.20;;;22.20;93.30;;;;;;5092100;28;20028;-79
2022/07/09 10:54:29;;;;;;;2.50;1.38;;;22.20;92.90;;;;;;5091993;28;20053;-79
2022/07/09 10:56:56;;;;;;;2.22;1.10;;;22.30;93.10;;;;;;5091328;28;20487;-79
2022/07/09 10:59:22;;;;;;;3.38;1.60;;;22.30;93.10;;;;;;5090418;28;20028;-79
2022/07/09 11:01:50;;;;;;;2.70;1.60;;;22.30;92.60;;;;;;5091920;28;20197;-79
2022/07/09 11:04:29;;;;;;;2.65;1.60;;;22.30;92.60;;;;;;5091769;28;20119;-79
2022/07/09 11:06:55;;;;;;;2.72;1.50;;;22.40;92.60;;;;;;5091543;28;20028;-79
2022/07/09 11:09:22;;;;;;;2.92;1.40;;;22.40;92.80;;;;;;5091596;28;20035;-79
2022/07/09 11:11:48;;;;;;;2.97;1.50;;;22.40;92.90;;;;;;5091434;28;20032;-79
2022/07/09 11:14:14;;;;;;;4.25;1.60;;;22.40;93.00;;;;;;5073431;28;20135;-79
2022/07/09 11:16:40;;;;;;;4.38;2.03;;;22.50;92.90;;;;;;5091434;28;20024;-79
2022/07/09 11:19:19;;;;;;;4.57;1.98;;;22.50;92.60;;;;;;5091362;28;20077;-79
2022/07/09 11:21:46;;;;;;;3.70;2.30;;;22.60;92.60;;;;;;5091310;28;20473;-79
2022/07/09 11:24:19;;;;;;;4.10;2.15;;;22.50;92.90;;;;;;5091477;28;20036;-79
2022/07/09 11:26:48;;;;;;;3.67;2.10;;;22.50;92.90;;;;;;5091180;28;20043;-79
2022/07/09 11:29:16;;;;;;;3.25;1.70;;;22.50;93.10;;;;;;5091275;28;20039;-79
2022/07/09 11:31:52;;;;;;;4.65;2.58;;;22.40;93.10;;;;;;5091356;28;20107;-79
2022/07/09 11:34:19;;;;;;;3.40;2.10;;;22.50;93.00;;;;;;5091420;28;20396;-78
2022/07/09 11:36:50;;;;;;;4.22;2.50;;;22.60;93.00;;;;;;5091139;28;20024;-79
2022/07/09 11:39:36;;;;;;;5.00;1.90;;;22.70;93.00;;;;;;5089933;28;20098;-79
2022/07/09 11:42:03;;;;;;;5.18;2.20;;;22.80;93.50;;;;;;5091080;28;20099;-79
2022/07/09 11:44:34;;;;;;;6.07;3.08;;;22.80;93.20;;;;;;5089814;28;20035;-79
2022/07/09 11:47:11;;;;;;;5.50;2.83;;;22.80;93.20;;;;;;5090888;28;20066;-79
2022/07/09 11:49:39;;;;;;;3.70;2.33;;;22.90;93.20;;;;;;5089471;28;20442;-79
2022/07/09 11:52:20;;;;;;;5.65;2.53;;;22.90;93.30;;;;;;5090955;28;20097;-78
2022/07/09 11:55:08;;;;;;;4.70;3.30;;;22.90;93.10;;;;;;5089556;28;20032;-79
2022/07/09 11:57:36;;;;;;;7.30;3.45;;;23.00;93.10;;;;;;5090835;28;20020;-79
2022/07/09 12:00:05;;;;;;;4.13;3.08;;;23.00;93.30;;;;;;5090698;28;20121;-78
2022/07/09 12:02:38;;;;;;;5.20;3.10;;;23.00;93.30;;;;;;5089604;28;20036;-78
2022/07/09 12:05:06;;;;;;;5.43;3.25;;;23.10;93.30;;;;;;5090823;28;20032;-79
2022/07/09 12:07:33;;;;;;;6.07;2.95;;;23.10;93.30;;;;;;5089509;28;20020;-79
2022/07/09 12:10:01;;;;;;;5.32;2.95;;;23.10;93.30;;;;;;5089891;28;20125;-79
2022/07/09 12:12:28;;;;;;;6.28;3.85;;;23.10;93.30;;;;;;5090668;28;20036;-79
2022/07/09 12:14:57;;;;;;;7.40;3.60;;;23.10;93.10;;;;;;5090742;28;20036;-79
2022/07/09 12:17:29;;;;;;;4.70;3.17;;;23.00;93.30;;;;;;5090565;28;20024;-79
2022/07/09 12:19:55;;;;;;;7.97;3.80;;;23.00;93.10;;;;;;5089007;28;20020;-79
2022/07/09 12:22:25;;;;;;;7.20;3.60;;;22.90;93.10;;;;;;5090823;28;20082;-79
2022/07/09 12:24:52;;;;;;;4.90;3.92;;;22.80;93.20;;;;;;5090675;28;20031;-79
2022/07/09 12:27:21;;;;;;;8.57;5.28;;;22.80;93.40;;;;;;5072469;28;20046;-79
2022/07/09 12:29:47;;;;;;;8.40;4.20;;;22.60;93.60;;;;;;5090372;28;20120;-79
2022/07/09 12:32:13;;;;;;;8.07;4.45;;;22.60;93.80;;;;;;5090354;28;20127;-79
2022/07/09 12:34:39;;;;;;;6.28;3.60;;;22.50;93.70;;;;;;5090462;28;20122;-79
2022/07/09 12:37:05;;;;;;;7.07;3.63;;;22.40;93.80;;;;;;5090404;28;20031;-79
2022/07/09 12:39:31;;;;;;;16.38;6.43;;;22.30;93.90;;;;;;5090412;28;20020;-79
2022/07/09 12:41:58;;;;;;;12.45;6.63;;;22.30;97.30;;;;;;5090459;28;20086;-78